Time;durP1;ratioP1;P1;durP2;ratioP2;P2;SDS_P1;SDS_P2;PMS_P1;PMS_P2;Temp;Humidity;BMP_temperature;BMP_pressure;BME280_temperature;BME280_humidity;BME280_pressure;Samples;Min_cycle;Max_cycle;Signal;HPM_P1;HPM_P2
2021/10/23 00:00:22;;;;;;;;;;;14.60;59.70;;;;;;4345629;32;19994;-42
2021/10/23 00:02:48;;;;;;;;;;;14.60;59.60;;;;;;4346056;32;19987;-41
2021/10/23 00:05:14;;;;;;;;;;;14.60;59.70;;;;;;4345788;32;20039;-41
2021/10/23 00:07:40;;;;;;;;;;;14.50;59.70;;;;;;4345766;32;20064;-42
2021/10/23 00:10:07;;;;;;;;;;;14.50;59.80;;;;;;4345879;32;20384;-40
2021/10/23 00:12:33;;;;;;;;;;;14.50;59.90;;;;;;4345848;32;19996;-42
2021/10/23 00:14:59;;;;;;;;;;;14.50;60.00;;;;;;4345295;32;20035;-42
2021/10/23 00:17:25;;;;;;;;;;;14.40;60.10;;;;;;4345371;32;19955;-41
2021/10/23 00:19:52;;;;;;;;;;;14.40;60.30;;;;;;4345622;32;19986;-42
2021/10/23 00:22:18;;;;;;;;;;;14.40;60.40;;;;;;4346836;32;19967;-39
2021/10/23 00:24:44;;;;;;;;;;;14.40;60.40;;;;;;4360302;32;19997;-41
2021/10/23 00:27:11;;;;;;;;;;;14.40;60.30;;;;;;4360120;32;19974;-42
2021/10/23 00:29:37;;;;;;;;;;;14.40;60.30;;;;;;4359949;32;20413;-42
2021/10/23 00:32:04;;;;;;;;;;;14.50;60.30;;;;;;4346176;32;20033;-42
2021/10/23 00:34:30;;;;;;;;;;;14.50;60.20;;;;;;4360053;32;20065;-41
2021/10/23 00:36:56;;;;;;;;;;;14.50;60.80;;;;;;4359849;32;20529;-42
2021/10/23 00:39:22;;;;;;;;;;;14.50;60.00;;;;;;4359611;32;20080;-41
2021/10/23 00:41:48;;;;;;;;;;;14.50;60.00;;;;;;4359963;32;19982;-41
2021/10/23 00:44:35;;;;;;;;;;;14.50;60.00;;;;;;4359957;32;19963;-41
2021/10/23 00:47:09;;;;;;;;;;;14.50;60.00;;;;;;4372552;32;20362;-42
2021/10/23 00:49:36;;;;;;;;;;;14.60;60.10;;;;;;4360492;32;19966;-42
2021/10/23 00:52:03;;;;;;;;;;;14.60;59.90;;;;;;4360574;32;20078;-42
2021/10/23 00:54:30;;;;;;;;;;;14.50;59.80;;;;;;4360776;32;20046;-42
2021/10/23 00:56:56;;;;;;;;;;;14.50;59.30;;;;;;4374836;32;19973;-42
2021/10/23 00:59:22;;;;;;;;;;;14.40;59.50;;;;;;4374669;32;19973;-41
2021/10/23 01:01:49;;;;;;;;;;;14.40;59.50;;;;;;4360680;32;19962;-41
2021/10/23 01:04:15;;;;;;;;;;;14.30;59.50;;;;;;4374325;32;20418;-41
2021/10/23 01:06:41;;;;;;;;;;;14.30;59.70;;;;;;4347621;32;19982;-42
2021/10/23 01:09:07;;;;;;;;;;;14.20;59.80;;;;;;4374480;32;20373;-41
2021/10/23 01:11:34;;;;;;;;;;;14.20;59.80;;;;;;4374650;32;20460;-41
2021/10/23 01:14:00;;;;;;;;;;;14.10;59.60;;;;;;4374145;32;20491;-41
2021/10/23 01:16:26;;;;;;;;;;;14.10;59.60;;;;;;4374054;32;20004;-42
2021/10/23 01:18:53;;;;;;;;;;;14.00;59.80;;;;;;4360568;32;19984;-42
2021/10/23 01:21:23;;;;;;;;;;;14.00;59.90;;;;;;4374677;32;19973;-42
2021/10/23 01:23:50;;;;;;;;;;;13.90;59.80;;;;;;4374201;32;20063;-41
2021/10/23 01:26:21;;;;;;;;;;;13.90;59.90;;;;;;4374195;32;20385;-41
2021/10/23 01:28:47;;;;;;;;;;;13.90;59.90;;;;;;4360815;32;19997;-41
2021/10/23 01:31:13;;;;;;;;;;;13.80;60.00;;;;;;4374079;32;19962;-42
2021/10/23 01:33:40;;;;;;;;;;;13.80;60.10;;;;;;4374228;32;19989;-41
2021/10/23 01:36:10;;;;;;;;;;;13.80;60.10;;;;;;4373905;32;19976;-41
2021/10/23 01:38:37;;;;;;;;;;;13.80;60.10;;;;;;4373857;32;19964;-42
2021/10/23 01:41:05;;;;;;;;;;;13.80;60.10;;;;;;4359891;32;19992;-42
2021/10/23 01:43:32;;;;;;;;;;;13.80;60.10;;;;;;4373586;32;19962;-42
2021/10/23 01:45:58;;;;;;;;;;;13.80;60.10;;;;;;4367176;32;19980;-43
2021/10/23 01:48:24;;;;;;;;;;;13.80;60.20;;;;;;4358674;32;20401;-42
2021/10/23 01:50:50;;;;;;;;;;;13.80;60.10;;;;;;4345373;32;20028;-42
2021/10/23 01:53:17;;;;;;;;;;;13.80;60.10;;;;;;4358781;32;20410;-41
2021/10/23 01:55:43;;;;;;;;;;;13.80;60.10;;;;;;4358685;32;21078;-41
2021/10/23 01:58:09;;;;;;;;;;;13.70;60.00;;;;;;4358457;32;20004;-42
2021/10/23 02:00:35;;;;;;;;;;;13.70;60.00;;;;;;4358707;32;20004;-42
2021/10/23 02:03:02;;;;;;;;;;;13.70;60.00;;;;;;4358818;32;19955;-41
2021/10/23 02:05:28;;;;;;;;;;;13.60;60.10;;;;;;4358656;32;19965;-42
2021/10/23 02:07:54;;;;;;;;;;;13.60;60.20;;;;;;4345016;32;19981;-40
2021/10/23 02:10:23;;;;;;;;;;;13.60;60.40;;;;;;4359101;32;20047;-41
2021/10/23 02:12:49;;;;;;;;;;;13.60;60.40;;;;;;4345014;32;19966;-41
2021/10/23 02:15:15;;;;;;;;;;;13.50;60.40;;;;;;4358588;32;20005;-41
2021/10/23 02:17:41;;;;;;;;;;;13.50;60.50;;;;;;4358471;32;20373;-41
2021/10/23 02:20:09;;;;;;;;;;;13.50;60.60;;;;;;4358635;32;19966;-40
2021/10/23 02:22:35;;;;;;;;;;;13.50;60.60;;;;;;4358380;32;19990;-40
2021/10/23 02:25:01;;;;;;;;;;;13.50;60.70;;;;;;4344978;32;19962;-40
2021/10/23 02:27:28;;;;;;;;;;;13.40;60.70;;;;;;4358586;32;19967;-39
2021/10/23 02:29:54;;;;;;;;;;;13.40;60.70;;;;;;4359003;32;20004;-40
2021/10/23 02:32:20;;;;;;;;;;;13.40;61.00;;;;;;4358542;32;20620;-40
2021/10/23 02:34:46;;;;;;;;;;;13.50;60.80;;;;;;4358512;32;19994;-40
2021/10/23 02:37:13;;;;;;;;;;;13.40;60.80;;;;;;4358756;32;19970;-41
2021/10/23 02:39:39;;;;;;;;;;;13.40;60.90;;;;;;4358575;32;20074;-41
2021/10/23 02:42:06;;;;;;;;;;;13.40;61.10;;;;;;4358640;32;20047;-40
2021/10/23 02:44:32;;;;;;;;;;;13.40;61.20;;;;;;4358385;32;20410;-41
2021/10/23 02:46:58;;;;;;;;;;;13.40;61.30;;;;;;4344513;32;19964;-40
2021/10/23 02:49:24;;;;;;;;;;;13.40;61.30;;;;;;4358494;32;20043;-41
2021/10/23 02:51:50;;;;;;;;;;;13.30;61.40;;;;;;4358533;32;19970;-41
2021/10/23 02:54:17;;;;;;;;;;;13.30;61.40;;;;;;4358194;32;20066;-40
2021/10/23 02:56:43;;;;;;;;;;;13.30;61.40;;;;;;4358320;32;19974;-41
2021/10/23 02:59:09;;;;;;;;;;;13.30;61.40;;;;;;4358149;32;19966;-41
2021/10/23 03:01:36;;;;;;;;;;;13.30;61.50;;;;;;4358178;32;19966;-41
2021/10/23 03:04:02;;;;;;;;;;;13.30;61.50;;;;;;4358390;32;19982;-39
2021/10/23 03:06:28;;;;;;;;;;;13.30;61.60;;;;;;4357995;32;19950;-39
2021/10/23 03:08:54;;;;;;;;;;;13.20;61.50;;;;;;4358378;32;19955;-40
2021/10/23 03:11:20;;;;;;;;;;;13.20;61.50;;;;;;4358272;32;19958;-40
2021/10/23 03:13:47;;;;;;;;;;;13.20;61.60;;;;;;4357996;32;20064;-40
2021/10/23 03:16:13;;;;;;;;;;;13.20;61.70;;;;;;4358340;32;20033;-40
2021/10/23 03:18:39;;;;;;;;;;;13.20;61.70;;;;;;4358057;32;20050;-40
2021/10/23 03:21:05;;;;;;;;;;;13.20;61.70;;;;;;4357686;32;20465;-40
2021/10/23 03:23:32;;;;;;;;;;;13.20;61.70;;;;;;4357654;32;20355;-39
2021/10/23 03:25:58;;;;;;;;;;;13.30;61.70;;;;;;4357940;32;19959;-40
2021/10/23 03:28:24;;;;;;;;;;;13.30;61.60;;;;;;4358597;32;20455;-41
2021/10/23 03:30:50;;;;;;;;;;;13.30;61.60;;;;;;4359127;32;20420;-40
2021/10/23 03:33:16;;;;;;;;;;;13.30;61.60;;;;;;4360549;32;20046;-39
2021/10/23 03:35:43;;;;;;;;;;;13.30;61.60;;;;;;4360309;32;20413;-41
2021/10/23 03:38:09;;;;;;;;;;;13.30;61.60;;;;;;4360611;32;20402;-41
2021/10/23 03:40:35;;;;;;;;;;;13.30;61.70;;;;;;4360640;32;20001;-39
2021/10/23 03:43:01;;;;;;;;;;;13.30;61.70;;;;;;4360696;32;19962;-40
2021/10/23 03:45:28;;;;;;;;;;;13.30;61.60;;;;;;4360442;32;19973;-40
2021/10/23 03:47:54;;;;;;;;;;;13.30;61.70;;;;;;4360268;32;20063;-40
2021/10/23 03:50:20;;;;;;;;;;;13.30;61.70;;;;;;4360327;32;19990;-41
2021/10/23 03:52:47;;;;;;;;;;;13.30;61.70;;;;;;4360349;32;19978;-40
2021/10/23 03:55:13;;;;;;;;;;;13.40;61.70;;;;;;4359922;32;20055;-41
2021/10/23 03:57:39;;;;;;;;;;;13.40;61.70;;;;;;4360605;32;19982;-40
2021/10/23 04:00:06;;;;;;;;;;;13.40;61.70;;;;;;4360330;32;19979;-40
2021/10/23 04:02:33;;;;;;;;;;;13.50;61.70;;;;;;4360169;32;20542;-40
2021/10/23 04:04:59;;;;;;;;;;;13.60;61.70;;;;;;4360456;32;20422;-40
2021/10/23 04:07:25;;;;;;;;;;;13.60;61.50;;;;;;4360260;32;20057;-40
2021/10/23 04:09:51;;;;;;;;;;;13.60;61.40;;;;;;4360273;32;19993;-40
2021/10/23 04:12:17;;;;;;;;;;;13.70;61.20;;;;;;4360087;32;19978;-39
2021/10/23 04:14:44;;;;;;;;;;;13.70;61.10;;;;;;4359921;32;20535;-41
2021/10/23 04:17:10;;;;;;;;;;;13.70;60.90;;;;;;4359933;32;19974;-41
2021/10/23 04:19:36;;;;;;;;;;;13.70;60.90;;;;;;4359987;32;19966;-39
2021/10/23 04:22:02;;;;;;;;;;;13.80;60.80;;;;;;4360173;32;20403;-39
2021/10/23 04:24:29;;;;;;;;;;;13.80;60.80;;;;;;4360088;32;19975;-40
2021/10/23 04:26:55;;;;;;;;;;;13.80;60.70;;;;;;4359694;32;20575;-40
2021/10/23 04:29:21;;;;;;;;;;;13.90;60.80;;;;;;4360316;32;19966;-42
2021/10/23 04:31:48;;;;;;;;;;;14.00;60.70;;;;;;4359839;32;19970;-40
2021/10/23 04:34:15;;;;;;;;;;;14.00;60.70;;;;;;4360066;32;20006;-40
2021/10/23 04:36:42;;;;;;;;;;;14.10;60.50;;;;;;4359724;32;20460;-40
2021/10/23 04:39:09;;;;;;;;;;;14.20;60.30;;;;;;4359704;32;20460;-40
2021/10/23 04:41:36;;;;;;;;;;;14.20;60.00;;;;;;4359118;32;20017;-40
2021/10/23 04:44:03;;;;;;;;;;;14.30;60.00;;;;;;4359898;32;19978;-41
2021/10/23 04:46:29;;;;;;;;;;;14.30;60.00;;;;;;4369453;32;19970;-40
2021/10/23 04:48:55;;;;;;;;;;;14.40;59.80;;;;;;4374285;32;20053;-40
2021/10/23 04:51:21;;;;;;;;;;;14.40;59.70;;;;;;4374212;32;20418;-41
2021/10/23 04:53:49;;;;;;;;;;;14.50;59.70;;;;;;4374796;32;19973;-41
2021/10/23 04:56:15;;;;;;;;;;;14.50;59.50;;;;;;4374216;32;20082;-41
2021/10/23 04:58:42;;;;;;;;;;;14.50;59.20;;;;;;4374342;32;19973;-41
2021/10/23 05:01:08;;;;;;;;;;;14.60;59.10;;;;;;4374192;32;20069;-40
2021/10/23 05:03:34;;;;;;;;;;;14.70;59.10;;;;;;4374444;32;20426;-39
2021/10/23 05:06:00;;;;;;;;;;;14.70;58.90;;;;;;4374576;32;19969;-40
2021/10/23 05:08:26;;;;;;;;;;;14.70;58.70;;;;;;4360361;32;19989;-41
2021/10/23 05:10:53;;;;;;;;;;;14.80;58.50;;;;;;4374324;32;19989;-40
2021/10/23 05:13:19;;;;;;;;;;;14.80;58.30;;;;;;4373991;32;20082;-40
2021/10/23 05:15:45;;;;;;;;;;;14.80;58.30;;;;;;4360279;32;20457;-40
2021/10/23 05:18:11;;;;;;;;;;;14.80;58.30;;;;;;4373977;32;20370;-39
2021/10/23 05:20:37;;;;;;;;;;;14.80;58.30;;;;;;4374000;32;19966;-39
2021/10/23 05:23:04;;;;;;;;;;;14.90;58.40;;;;;;4373953;32;19982;-40
2021/10/23 05:25:30;;;;;;;;;;;15.00;58.20;;;;;;4374496;32;19968;-41
2021/10/23 05:27:56;;;;;;;;;;;15.10;58.10;;;;;;4373766;32;19980;-41
2021/10/23 05:30:22;;;;;;;;;;;15.20;58.30;;;;;;4374160;32;19962;-40
2021/10/23 05:32:49;;;;;;;;;;;15.30;57.70;;;;;;4373990;32;19971;-40
2021/10/23 05:35:15;;;;;;;;;;;15.50;57.60;;;;;;4374051;32;19996;-40
2021/10/23 05:37:41;;;;;;;;;;;15.70;57.40;;;;;;4373497;32;20501;-40
2021/10/23 05:40:08;;;;;;;;;;;15.80;56.90;;;;;;4373359;32;19969;-40
2021/10/23 05:42:34;;;;;;;;;;;15.90;56.70;;;;;;4374047;32;19974;-40
2021/10/23 05:45:00;;;;;;;;;;;16.10;56.50;;;;;;4372805;32;19978;-39
2021/10/23 05:47:26;;;;;;;;;;;16.20;56.40;;;;;;4358469;32;20005;-41
2021/10/23 05:49:53;;;;;;;;;;;16.40;56.00;;;;;;4358839;32;20447;-40
2021/10/23 05:52:19;;;;;;;;;;;16.60;55.30;;;;;;4358513;32;19990;-40
2021/10/23 05:54:45;;;;;;;;;;;16.80;54.40;;;;;;4358100;32;19965;-41
2021/10/23 05:57:14;;;;;;;;;;;16.90;54.00;;;;;;4326236;33;20106;-39
2021/10/23 05:59:42;;;;;;;;;;;17.10;52.90;;;;;;4326890;33;19978;-40
2021/10/23 06:02:31;;;;;;;;;;;17.30;52.80;;;;;;4326179;33;20387;-39
2021/10/23 06:04:56;;;;;;;;;;;17.50;52.60;;;;;;4326089;33;20447;-41
2021/10/23 06:07:24;;;;;;;;;;;17.70;51.70;;;;;;4326018;33;20473;-40
2021/10/23 06:09:51;;;;;;;;;;;17.90;51.50;;;;;;4326583;33;20491;-41
2021/10/23 06:12:17;;;;;;;;;;;18.10;51.60;;;;;;4326300;33;19974;-40
2021/10/23 06:14:43;;;;;;;;;;;18.40;51.00;;;;;;4314057;33;20522;-40
2021/10/23 06:17:10;;;;;;;;;;;18.60;50.20;;;;;;4314192;33;20411;-39
2021/10/23 06:19:37;;;;;;;;;;;18.80;49.90;;;;;;4326417;33;20004;-39
2021/10/23 06:22:04;;;;;;;;;;;19.00;49.40;;;;;;4326488;33;19970;-41
2021/10/23 06:24:30;;;;;;;;;;;19.30;49.20;;;;;;4326617;33;19979;-40
2021/10/23 06:26:57;;;;;;;;;;;19.50;48.70;;;;;;4326258;33;19966;-41
2021/10/23 06:29:23;;;;;;;;;;;19.80;48.00;;;;;;4357835;32;20410;-39
2021/10/23 06:31:49;;;;;;;;;;;20.10;48.00;;;;;;4358366;32;20029;-40
2021/10/23 06:34:15;;;;;;;;;;;20.40;47.50;;;;;;4358031;32;19989;-39
2021/10/23 06:36:41;;;;;;;;;;;20.60;46.30;;;;;;4344333;32;19974;-40
2021/10/23 06:39:08;;;;;;;;;;;20.80;46.20;;;;;;4344703;32;20036;-40
2021/10/23 06:41:36;;;;;;;;;;;21.00;46.00;;;;;;4358298;32;19974;-40
2021/10/23 06:44:04;;;;;;;;;;;21.30;45.80;;;;;;4358235;32;19966;-40
2021/10/23 06:46:30;;;;;;;;;;;21.40;44.60;;;;;;4368136;32;19990;-40
2021/10/23 06:48:56;;;;;;;;;;;21.50;44.10;;;;;;4373031;32;19989;-40
2021/10/23 06:51:23;;;;;;;;;;;21.50;43.60;;;;;;4372744;32;19962;-40
2021/10/23 06:53:54;;;;;;;;;;;21.60;43.90;;;;;;4359020;32;19977;-40
2021/10/23 06:56:20;;;;;;;;;;;21.70;43.30;;;;;;4373496;32;19965;-40
2021/10/23 06:58:46;;;;;;;;;;;21.60;42.50;;;;;;4373056;32;19966;-40
2021/10/23 07:01:12;;;;;;;;;;;21.60;42.30;;;;;;4372608;32;20440;-40
2021/10/23 07:03:38;;;;;;;;;;;21.60;42.10;;;;;;4359184;32;20024;-40
2021/10/23 07:06:05;;;;;;;;;;;21.60;42.20;;;;;;4374602;32;19983;-39
2021/10/23 07:08:31;;;;;;;;;;;21.60;42.50;;;;;;4375687;32;20020;-40
2021/10/23 07:10:57;;;;;;;;;;;21.70;42.00;;;;;;4375545;32;20047;-40
2021/10/23 07:13:23;;;;;;;;;;;21.70;41.30;;;;;;4361839;32;20464;-40
2021/10/23 07:15:49;;;;;;;;;;;21.60;41.30;;;;;;4375524;32;19958;-40
2021/10/23 07:18:16;;;;;;;;;;;21.60;41.50;;;;;;4361935;32;20115;-40
2021/10/23 07:20:42;;;;;;;;;;;21.50;41.30;;;;;;4375991;32;19977;-37
2021/10/23 07:23:08;;;;;;;;;;;21.50;41.40;;;;;;4376261;32;19965;-40
2021/10/23 07:25:34;;;;;;;;;;;21.40;41.20;;;;;;4375740;32;19967;-40
2021/10/23 07:28:00;;;;;;;;;;;21.30;40.80;;;;;;4375850;32;19978;-40
2021/10/23 07:30:27;;;;;;;;;;;21.20;40.80;;;;;;4375480;32;19974;-40
2021/10/23 07:32:53;;;;;;;;;;;21.20;41.20;;;;;;4361467;32;20046;-40
2021/10/23 07:35:19;;;;;;;;;;;21.20;41.70;;;;;;4374907;32;20351;-40
2021/10/23 07:37:45;;;;;;;;;;;21.30;41.80;;;;;;4375203;32;20014;-40
2021/10/23 07:40:12;;;;;;;;;;;21.40;41.80;;;;;;4375267;32;19973;-39
2021/10/23 07:42:39;;;;;;;;;;;21.50;41.50;;;;;;4375744;32;20049;-40
2021/10/23 07:45:06;;;;;;;;;;;21.50;40.80;;;;;;4347461;32;19969;-40
2021/10/23 07:47:34;;;;;;;;;;;21.50;40.60;;;;;;4359981;32;19977;-40
2021/10/23 07:50:00;;;;;;;;;;;21.60;40.80;;;;;;4359784;32;19970;-40
2021/10/23 07:52:26;;;;;;;;;;;21.70;40.70;;;;;;4360522;32;19966;-40
2021/10/23 07:54:52;;;;;;;;;;;21.90;40.60;;;;;;4359874;32;20343;-40
2021/10/23 07:57:18;;;;;;;;;;;22.00;40.50;;;;;;4360268;32;19970;-40
2021/10/23 07:59:44;;;;;;;;;;;22.20;40.30;;;;;;4359960;32;19966;-39
2021/10/23 08:02:11;;;;;;;;;;;22.50;39.90;;;;;;4359898;32;20465;-41
2021/10/23 08:04:37;;;;;;;;;;;22.70;39.30;;;;;;4360338;32;20006;-40
2021/10/23 08:07:04;;;;;;;;;;;22.70;38.50;;;;;;4359899;32;19973;-40
2021/10/23 08:09:35;;;;;;;;;;;22.70;38.00;;;;;;4359848;32;19982;-41
2021/10/23 08:12:01;;;;;;;;;;;22.80;37.90;;;;;;4346445;32;20054;-41
2021/10/23 08:14:27;;;;;;;;;;;22.80;37.90;;;;;;4346149;32;20000;-40
2021/10/23 08:16:53;;;;;;;;;;;22.90;37.50;;;;;;4359396;32;20398;-49
2021/10/23 08:19:20;;;;;;;;;;;23.00;37.10;;;;;;4359656;32;19973;-39
2021/10/23 08:21:46;;;;;;;;;;;23.10;37.20;;;;;;4346270;32;19977;-39
2021/10/23 08:24:13;;;;;;;;;;;23.20;37.00;;;;;;4359819;32;20425;-41
2021/10/23 08:26:39;;;;;;;;;;;23.30;35.90;;;;;;4359777;32;19955;-41
2021/10/23 08:29:05;;;;;;;;;;;23.30;35.40;;;;;;4359566;32;20002;-42
2021/10/23 08:31:32;;;;;;;;;;;23.10;35.20;;;;;;4359593;32;19990;-41
2021/10/23 08:33:58;;;;;;;;;;;23.00;35.00;;;;;;4359795;32;20078;-40
2021/10/23 08:36:24;;;;;;;;;;;22.90;35.00;;;;;;4359149;32;20128;-40
2021/10/23 08:38:51;;;;;;;;;;;22.90;35.10;;;;;;4359416;32;20370;-40
2021/10/23 08:41:17;;;;;;;;;;;22.80;35.10;;;;;;4359693;32;19973;-40
2021/10/23 08:43:43;;;;;;;;;;;22.80;34.80;;;;;;4345954;32;19973;-41
2021/10/23 08:46:12;;;;;;;;;;;22.80;35.00;;;;;;4345406;32;19979;-41
2021/10/23 08:48:41;;;;;;;;;;;22.70;34.80;;;;;;4345893;32;20036;-41
2021/10/23 08:51:09;;;;;;;;;;;22.70;34.80;;;;;;4345609;32;19994;-41
2021/10/23 08:53:38;;;;;;;;;;;22.70;34.60;;;;;;4359254;32;20128;-40
2021/10/23 08:56:06;;;;;;;;;;;22.60;34.50;;;;;;4346042;32;20048;-42
2021/10/23 08:58:32;;;;;;;;;;;22.60;34.50;;;;;;4359636;32;19978;-41
2021/10/23 09:00:59;;;;;;;;;;;22.60;34.70;;;;;;4359545;32;20045;-43
2021/10/23 09:03:26;;;;;;;;;;;22.50;34.50;;;;;;4345390;32;19990;-42
2021/10/23 09:05:52;;;;;;;;;;;22.40;34.70;;;;;;4345498;32;20106;-40
2021/10/23 09:08:18;;;;;;;;;;;22.40;34.90;;;;;;4345448;32;19969;-40
2021/10/23 09:10:49;;;;;;;;;;;22.30;34.90;;;;;;4345248;32;19965;-41
2021/10/23 09:13:31;;;;;;;;;;;22.20;35.10;;;;;;4359109;32;20067;-42
2021/10/23 09:15:58;;;;;;;;;;;22.10;34.80;;;;;;4358960;32;19966;-40
2021/10/23 09:18:49;;;;;;;;;;;22.10;34.70;;;;;;4345595;32;19958;-42
2021/10/23 09:21:22;;;;;;;;;;;22.00;34.30;;;;;;4359302;32;19962;-40
2021/10/23 09:23:50;;;;;;;;;;;21.90;34.00;;;;;;4344644;32;20379;-41
2021/10/23 09:26:35;;;;;;;;;;;21.80;34.30;;;;;;4358867;32;20433;-41
2021/10/23 09:29:23;;;;;;;;;;;21.90;34.40;;;;;;4358607;32;19974;-40
2021/10/23 09:31:53;;;;;;;;;;;21.90;34.30;;;;;;4345649;32;19958;-39
2021/10/23 09:34:23;;;;;;;;;;;21.90;34.30;;;;;;4359015;32;19982;-39
2021/10/23 09:36:50;;;;;;;;;;;21.90;33.80;;;;;;4358881;32;19959;-40
2021/10/23 09:39:27;;;;;;;;;;;21.90;34.00;;;;;;4344809;32;20405;-41
2021/10/23 09:42:10;;;;;;;;;;;21.90;33.90;;;;;;4358758;32;19967;-40
2021/10/23 09:45:02;;;;;;;;;;;21.80;33.70;;;;;;4358628;32;20477;-42
2021/10/23 09:47:37;;;;;;;;;;;21.80;33.80;;;;;;4358414;32;20509;-40
2021/10/23 09:50:21;;;;;;;;;;;21.80;33.80;;;;;;4358519;32;20038;-41
2021/10/23 09:52:58;;;;;;;;;;;21.70;33.50;;;;;;4358792;32;20543;-40
2021/10/23 09:55:29;;;;;;;;;;;21.80;32.50;;;;;;4358531;32;20367;-41
2021/10/23 09:58:12;;;;;;;;;;;21.70;32.20;;;;;;4332276;32;19978;-41
2021/10/23 10:00:39;;;;;;;;;;;21.70;32.20;;;;;;4358607;32;19998;-42
2021/10/23 10:03:06;;;;;;;;;;;21.70;31.90;;;;;;4358410;32;20343;-41
2021/10/23 10:05:34;;;;;;;;;;;21.80;31.70;;;;;;4358502;32;19984;-42
2021/10/23 10:08:10;;;;;;;;;;;21.80;31.50;;;;;;4358039;32;20372;-41
2021/10/23 10:10:38;;;;;;;;;;;21.80;32.10;;;;;;4344407;32;19967;-40
2021/10/23 10:13:05;;;;;;;;;;;21.80;32.60;;;;;;4358725;32;19978;-41
2021/10/23 10:15:32;;;;;;;;;;;21.80;33.20;;;;;;4358639;32;20495;-40
2021/10/23 10:18:17;;;;;;;;;;;21.80;32.50;;;;;;4358141;32;20340;-41
2021/10/23 10:20:45;;;;;;;;;;;21.90;32.80;;;;;;4344800;32;19962;-40
2021/10/23 10:23:19;;;;;;;;;;;21.90;32.80;;;;;;4358220;32;20048;-40
2021/10/23 10:26:05;;;;;;;;;;;21.90;33.10;;;;;;4358276;32;19986;-41
2021/10/23 10:28:31;;;;;;;;;;;21.80;33.10;;;;;;4346340;32;19962;-40
2021/10/23 10:30:59;;;;;;;;;;;21.80;32.60;;;;;;4344686;32;19967;-44
2021/10/23 10:33:34;;;;;;;;;;;21.70;32.40;;;;;;4344778;32;20045;-40
2021/10/23 10:36:17;;;;;;;;;;;21.80;32.70;;;;;;4358264;32;19998;-40
2021/10/23 10:44:13;;;;;;;;;;;21.90;31.80;;;;;;4361289;32;19970;-40
2021/10/23 10:46:54;;;;;;;;;;;21.90;32.20;;;;;;4371970;32;20106;-40
2021/10/23 10:49:43;;;;;;;;;;;22.00;32.60;;;;;;4375799;32;19974;-40
2021/10/23 10:52:41;;;;;;;;;;;21.90;32.80;;;;;;4375903;32;20419;-41
2021/10/23 10:55:14;;;;;;;;;;;21.90;33.10;;;;;;4375792;32;19962;-40
2021/10/23 10:58:00;;;;;;;;;;;21.90;33.10;;;;;;4376125;32;19966;-40
2021/10/23 11:00:44;;;;;;;;;;;21.90;33.10;;;;;;4376210;32;19978;-39
2021/10/23 11:03:38;;;;;;;;;;;21.90;33.10;;;;;;4375811;32;19996;-41
2021/10/23 11:06:35;;;;;;;;;;;21.90;32.80;;;;;;4376336;32;19967;-40
2021/10/23 11:09:10;;;;;;;;;;;21.90;32.80;;;;;;4375856;32;19962;-40
2021/10/23 11:14:36;;;;;;;;;;;21.80;33.50;;;;;;4375990;32;19973;-40
2021/10/23 11:17:03;;;;;;;;;;;21.80;33.60;;;;;;4375978;32;20030;-40
2021/10/23 11:19:31;;;;;;;;;;;21.80;33.90;;;;;;4376086;32;20047;-40
2021/10/23 11:22:04;;;;;;;;;;;21.80;34.60;;;;;;4375346;32;20422;-38
2021/10/23 11:24:36;;;;;;;;;;;22.00;35.30;;;;;;4375844;32;20390;-41
2021/10/23 11:27:02;;;;;;;;;;;22.20;36.00;;;;;;4375212;32;20390;-39
2021/10/23 11:29:29;;;;;;;;;;;22.40;36.20;;;;;;4375546;32;19972;-39
2021/10/23 11:31:56;;;;;;;;;;;22.60;36.20;;;;;;4375988;32;20047;-40
2021/10/23 11:34:48;;;;;;;;;;;22.70;36.00;;;;;;4375789;32;20009;-40
2021/10/23 11:37:14;;;;;;;;;;;22.80;36.70;;;;;;4372588;32;19958;-40
2021/10/23 11:39:41;;;;;;;;;;;22.90;36.00;;;;;;4375543;32;20391;-40
2021/10/23 11:42:28;;;;;;;;;;;22.90;35.90;;;;;;4375534;32;20058;-40
2021/10/23 11:44:55;;;;;;;;;;;22.90;36.00;;;;;;4375581;32;19969;-40
2021/10/23 11:47:28;;;;;;;;;;;22.80;36.00;;;;;;4360288;32;20062;-41
2021/10/23 11:49:57;;;;;;;;;;;22.80;36.10;;;;;;4360634;32;19965;-41
2021/10/23 11:52:27;;;;;;;;;;;22.80;36.10;;;;;;4346205;32;19973;-40
2021/10/23 11:54:55;;;;;;;;;;;22.80;36.10;;;;;;4334647;32;20046;-40
2021/10/23 11:57:57;;;;;;;;;;;22.80;36.10;;;;;;4359830;32;20228;-40
2021/10/23 12:00:23;;;;;;;;;;;22.70;36.10;;;;;;4349936;32;20028;-40
2021/10/23 12:03:03;;;;;;;;;;;22.70;36.20;;;;;;4347033;32;19974;-40
2021/10/23 12:05:42;;;;;;;;;;;22.70;36.20;;;;;;4360067;32;20600;-38
2021/10/23 12:08:28;;;;;;;;;;;22.60;36.20;;;;;;4346115;32;20358;-40
2021/10/23 12:11:13;;;;;;;;;;;22.50;36.40;;;;;;4360718;32;19963;-42
2021/10/23 12:13:59;;;;;;;;;;;22.30;36.60;;;;;;4359883;32;20469;-38
2021/10/23 12:16:39;;;;;;;;;;;22.00;36.80;;;;;;4360078;32;19977;-39
2021/10/23 12:19:07;;;;;;;;;;;21.70;36.90;;;;;;4360159;32;19990;-40
2021/10/23 12:22:05;;;;;;;;;;;21.50;37.00;;;;;;4346310;32;19970;-39
2021/10/23 12:24:39;;;;;;;;;;;21.40;37.20;;;;;;4359722;32;19966;-39
2021/10/23 12:27:05;;;;;;;;;;;21.10;37.10;;;;;;4360268;32;20031;-40
2021/10/23 12:29:36;;;;;;;;;;;20.90;36.70;;;;;;4359710;32;19989;-39
2021/10/23 12:32:05;;;;;;;;;;;20.70;35.90;;;;;;4359604;32;19955;-40
2021/10/23 12:35:19;;;;;;;;;;;20.40;34.90;;;;;;4359980;32;19974;-38
2021/10/23 12:37:57;;;;;;;;;;;20.20;34.80;;;;;;4298715;33;19990;-39
2021/10/23 12:40:35;;;;;;;;;;;20.00;35.10;;;;;;4357538;32;19986;-39
2021/10/23 12:43:09;;;;;;;;;;;19.90;35.50;;;;;;4359460;32;20386;-39
2021/10/23 12:45:36;;;;;;;;;;;19.70;35.70;;;;;;4364109;32;19958;-39
2021/10/23 12:48:07;;;;;;;;;;;19.60;35.80;;;;;;4374159;32;19978;-39
2021/10/23 12:50:34;;;;;;;;;;;19.60;36.30;;;;;;4374568;32;19985;-40
2021/10/23 12:53:01;;;;;;;;;;;19.60;37.00;;;;;;4374102;32;20053;-38
2021/10/23 12:55:27;;;;;;;;;;;19.50;38.40;;;;;;4374348;32;19962;-40
2021/10/23 12:57:53;;;;;;;;;;;19.40;38.50;;;;;;4374112;32;19966;-39
2021/10/23 13:00:20;;;;;;;;;;;19.30;39.60;;;;;;4360591;32;19968;-40
2021/10/23 13:02:46;;;;;;;;;;;19.20;40.10;;;;;;4374240;32;19990;-40
2021/10/23 13:05:12;;;;;;;;;;;19.00;40.40;;;;;;4373877;32;20392;-41
2021/10/23 13:07:39;;;;;;;;;;;19.00;40.80;;;;;;4360112;32;19977;-41
2021/10/23 13:10:06;;;;;;;;;;;18.90;41.20;;;;;;4360289;32;20484;-39
2021/10/23 13:12:34;;;;;;;;;;;18.80;42.00;;;;;;4374238;32;20058;-40
2021/10/23 13:15:01;;;;;;;;;;;18.60;42.10;;;;;;4374268;32;20055;-40
2021/10/23 13:17:27;;;;;;;;;;;18.60;42.30;;;;;;4374573;32;20462;-40
2021/10/23 13:19:53;;;;;;;;;;;18.50;42.40;;;;;;4373556;32;19997;-41
2021/10/23 13:22:19;;;;;;;;;;;18.40;42.80;;;;;;4373780;32;19973;-40
2021/10/23 13:24:45;;;;;;;;;;;18.30;43.10;;;;;;4373815;32;19962;-41
2021/10/23 13:27:12;;;;;;;;;;;18.30;43.30;;;;;;4374161;32;19974;-41
2021/10/23 13:29:38;;;;;;;;;;;18.20;43.40;;;;;;4373613;32;19981;-41
2021/10/23 13:32:07;;;;;;;;;;;18.20;43.50;;;;;;4373495;32;20351;-39
2021/10/23 13:34:33;;;;;;;;;;;18.20;43.50;;;;;;4373724;32;19962;-38
2021/10/23 13:36:59;;;;;;;;;;;18.10;43.60;;;;;;4373694;32;20038;-39
2021/10/23 13:39:25;;;;;;;;;;;18.10;43.70;;;;;;4373261;32;19973;-40
2021/10/23 13:41:52;;;;;;;;;;;18.10;43.80;;;;;;4373460;32;19969;-40
2021/10/23 13:44:18;;;;;;;;;;;18.00;43.80;;;;;;4373128;32;20039;-40
2021/10/23 13:46:46;;;;;;;;;;;18.00;43.90;;;;;;4361154;32;20043;-42
2021/10/23 13:49:13;;;;;;;;;;;17.90;43.90;;;;;;4358342;32;20034;-40
2021/10/23 13:51:39;;;;;;;;;;;17.90;44.00;;;;;;4358511;32;19974;-41
2021/10/23 13:54:06;;;;;;;;;;;17.90;44.00;;;;;;4358275;32;20084;-41
2021/10/23 13:56:32;;;;;;;;;;;17.80;44.10;;;;;;4358737;32;20013;-40
2021/10/23 13:58:58;;;;;;;;;;;17.80;44.20;;;;;;4358154;32;19967;-41
2021/10/23 14:01:24;;;;;;;;;;;17.80;44.20;;;;;;4344632;32;20346;-41
2021/10/23 14:03:50;;;;;;;;;;;17.80;44.10;;;;;;4358488;32;19970;-41
2021/10/23 14:06:17;;;;;;;;;;;17.70;43.80;;;;;;4357600;32;19967;-40
2021/10/23 14:08:43;;;;;;;;;;;17.70;43.40;;;;;;4358538;32;19963;-41
2021/10/23 14:11:09;;;;;;;;;;;17.60;43.10;;;;;;4358207;32;20409;-40
2021/10/23 14:13:35;;;;;;;;;;;17.60;42.70;;;;;;4358445;32;20034;-40
2021/10/23 14:16:01;;;;;;;;;;;17.60;42.10;;;;;;4358273;32;19966;-41
2021/10/23 14:18:28;;;;;;;;;;;17.60;40.90;;;;;;4358326;32;19966;-41
2021/10/23 14:20:57;;;;;;;;;;;17.50;39.70;;;;;;4357933;32;20402;-41
2021/10/23 14:23:24;;;;;;;;;;;17.50;38.70;;;;;;4358013;32;20037;-40
2021/10/23 14:25:51;;;;;;;;;;;17.50;38.30;;;;;;4358596;32;19958;-40
2021/10/23 14:31:03;;;;;;;;;;;17.60;38.30;;;;;;4358328;32;19966;-41
2021/10/23 14:33:29;;;;;;;;;;;17.50;38.00;;;;;;4344569;32;19963;-42
2021/10/23 14:35:56;;;;;;;;;;;17.50;38.20;;;;;;4357981;32;20013;-42